Iron City, Tennessee
Current Conditions -  °F | °C
As of 7:53 AM on Thursday 27 Nov 2014 (Local Time) from KMSL Reporting Station
Broken Clouds Broken Clouds  
Wind Chill: 33°   Ceiling: 3900
Heat Index: 40°   Visibility: 10mi
Dew Point: 31°   Wind: 12mph
Humidity: 70%   Direction: 330°NNW
Pressure: 30.37"   Gusts: 18mph
Location:  35.02°N, 87.58°W
Report Text: KMSL 271353Z AUTO 33010G16KT 10SM FEW027 BKN039 04/M01 A3037 RMK AO2 SLP285 T00441006 $
Loading
Personal Weather Stations






























Interactive Weather Map New forecast layout! Learn more

10-Day Weather Forecast

Advertisements
Track Severe Weather on mobile